Observations for VALLEY RAF, United Kingdom (EGOV)

EGOV 250250Z AUTO 28016KT 9999 SCT021/// 05/01 Q1013
EGOV 250150Z AUTO 28016KT 9999 FEW023/// 05/00 Q1013
EGOV 250050Z AUTO 29011KT 9999 FEW027/// 05/M00 Q1013   
EGOV 242350Z AUTO 29011KT 9999 SCT044/// 05/M00 Q1012   
EGOV 242250Z AUTO 29010KT 9999 FEW050/// 05/00 Q1012
EGOV 242150Z AUTO 29009KT 9999 FEW026/// 05/00 Q1012
EGOV 242050Z AUTO 30009KT 9999 FEW026/// BKN045/// 06/00 Q1012  
EGOV 241950Z AUTO 29011KT 9999 FEW150/// 05/M01 Q1012   
EGOV 241850Z AUTO 29010KT 9999 NCD 05/M01 Q1011 
EGOV 241750Z AUTO 29010KT 9999 FEW050/// 06/01 Q1011
EGOV 241650Z 28014KT 9999 FEW023 BKN040 07/01 Q1011 BLU NOSIG   
EGOV 241550Z 27016KT 9999 FEW020CB BKN100 06/01 Q1010 BLU NOSIG 
EGOV 241450Z 25016G29KT 9999 VCSH FEW019CB FEW026TCU SCT030 BKN050 07/02 Q1010 BLU TEMPO 7000 SHRA SCT019 WHT   
EGOV 241350Z 24016KT 9999 FEW025CB FEW028TCU BKN050 08/00 Q1010 BLU TEMPO 26020G30KT 7000 SHRA BKN022CB WHT 
EGOV 241250Z 27011KT 9999 FEW028 08/02 Q1011 BLU NOSIG  
EGOV 241150Z 27012KT 9999 SCT030 08/01 Q1011 BLU NOSIG  
EGOV 241050Z 26013KT 9999 FEW032 08/01 Q1011 BLU NOSIG  
EGOV 240950Z 26011KT 9999 FEW032 07/01 Q1010 BLU NOSIG  
EGOV 240850Z 27007KT 9999 FEW032 06/01 Q1009 BLU NOSIG  
EGOV 240750Z 28008KT 9999 FEW031 06/01 Q1009 BLU NOSIG  
EGOV 240650Z 27008KT 9999 FEW030 05/00 Q1008 BLU NOSIG  
EGOV 240550Z AUTO 29006KT 9999 FEW032/// 05/M00 Q1008   
EGOV 240450Z AUTO 27009KT 9999 FEW031/// 04/00 Q1008
EGOV 240350Z AUTO 28005KT 9999 FEW031/// 04/00 Q1007
EGOV 240250Z AUTO 29007KT 9999 FEW044/// SCT050/// 05/00 Q1007